<?xml version="1.0" encoding="UTF-8" standalone="no" ?>
<gpx xmlns="http://www.topografix.com/GPX/1/1" xmlns:xsi="http://www.w3.org/2001/XMLSchema-instance" xsi:schemaLocation="http://www.topografix.com/GPX/1/1 http://www.topografix.com/GPX/1/1/gpx.xsd" version="1.1" creator="VisuGPX - https://www.visugpx.com">
  <metadata>
    <name>GTJ avec variantes GR5 - Labergement Sainte Marie &gt;Bellegarde</name>
  </metadata>
  <trk>
    <name><![CDATA[GTJ avec variantes GR5 - Labergement Sainte Marie >Bellegarde_10]]></name>
    <trkseg>
      <trkpt lat="46.59942" lon="6.1133">
        <ele>1094.145</ele>
        <time>2014-06-13T11:45:37Z</time>
      </trkpt>
      <trkpt lat="46.6006" lon="6.10864">
        <ele>1078.388</ele>
        <time>2014-06-13T11:40:08Z</time>
      </trkpt>
      <trkpt lat="46.60075" lon="6.10711">
        <ele>1077.323</ele>
        <time>2014-06-13T11:37:54Z</time>
      </trkpt>
      <trkpt lat="46.60127" lon="6.10712">
        <ele>1077.879</ele>
        <time>2014-06-13T11:36:58Z</time>
      </trkpt>
      <trkpt lat="46.60271" lon="6.10672">
        <ele>1079.207</ele>
        <time>2014-06-13T11:34:51Z</time>
      </trkpt>
      <trkpt lat="46.60692" lon="6.10676">
        <ele>1084.02</ele>
        <time>2014-06-13T11:29:02Z</time>
      </trkpt>
      <trkpt lat="46.608" lon="6.1061">
        <ele>1085</ele>
        <time>2014-06-13T11:27:18Z</time>
      </trkpt>
      <trkpt lat="46.60965" lon="6.10476">
        <ele>1086.929</ele>
        <time>2014-06-13T11:24:31Z</time>
      </trkpt>
      <trkpt lat="46.61099" lon="6.10403">
        <ele>1090.367</ele>
        <time>2014-06-13T11:22:36Z</time>
      </trkpt>
      <trkpt lat="46.61159" lon="6.10386">
        <ele>1091.255</ele>
        <time>2014-06-13T11:21:35Z</time>
      </trkpt>
      <trkpt lat="46.61197" lon="6.10414">
        <ele>1092.746</ele>
        <time>2014-06-13T11:20:55Z</time>
      </trkpt>
      <trkpt lat="46.61232" lon="6.10539">
        <ele>1093.251</ele>
        <time>2014-06-13T11:19:44Z</time>
      </trkpt>
      <trkpt lat="46.61372" lon="6.10582">
        <ele>1090.344</ele>
        <time>2014-06-13T11:17:36Z</time>
      </trkpt>
      <trkpt lat="46.61415" lon="6.1064">
        <ele>1093.619</ele>
        <time>2014-06-13T11:16:44Z</time>
      </trkpt>
      <trkpt lat="46.61446" lon="6.10645">
        <ele>1092.795</ele>
        <time>2014-06-13T11:16:14Z</time>
      </trkpt>
      <trkpt lat="46.61568" lon="6.10568">
        <ele>1095.607</ele>
        <time>2014-06-13T11:14:23Z</time>
      </trkpt>
      <trkpt lat="46.61639" lon="6.10559">
        <ele>1098.017</ele>
        <time>2014-06-13T11:13:28Z</time>
      </trkpt>
      <trkpt lat="46.6168" lon="6.10521">
        <ele>1098.425</ele>
        <time>2014-06-13T11:12:47Z</time>
      </trkpt>
      <trkpt lat="46.61707" lon="6.10523">
        <ele>1099.483</ele>
        <time>2014-06-13T11:12:21Z</time>
      </trkpt>
      <trkpt lat="46.61744" lon="6.10502">
        <ele>1102.386</ele>
        <time>2014-06-13T11:11:51Z</time>
      </trkpt>
      <trkpt lat="46.61806" lon="6.10518">
        <ele>1106.654</ele>
        <time>2014-06-13T11:10:58Z</time>
      </trkpt>
      <trkpt lat="46.61882" lon="6.10495">
        <ele>1106.185</ele>
        <time>2014-06-13T11:09:33Z</time>
      </trkpt>
      <trkpt lat="46.61941" lon="6.10547">
        <ele>1113.88</ele>
        <time>2014-06-13T11:08:29Z</time>
      </trkpt>
      <trkpt lat="46.62031" lon="6.1058">
        <ele>1122.583</ele>
        <time>2014-06-13T11:07:06Z</time>
      </trkpt>
      <trkpt lat="46.62192" lon="6.1045">
        <ele>1138.828</ele>
        <time>2014-06-13T11:04:09Z</time>
      </trkpt>
      <trkpt lat="46.6222" lon="6.10441">
        <ele>1137.964</ele>
        <time>2014-06-13T11:03:42Z</time>
      </trkpt>
      <trkpt lat="46.62258" lon="6.10477">
        <ele>1138.807</ele>
        <time>2014-06-13T11:02:56Z</time>
      </trkpt>
      <trkpt lat="46.62356" lon="6.10776">
        <ele>1150.826</ele>
        <time>2014-06-13T10:59:54Z</time>
      </trkpt>
      <trkpt lat="46.62429" lon="6.10916">
        <ele>1158.133</ele>
        <time>2014-06-13T10:58:02Z</time>
      </trkpt>
      <trkpt lat="46.62481" lon="6.10927">
        <ele>1164.378</ele>
        <time>2014-06-13T10:56:29Z</time>
      </trkpt>
      <trkpt lat="46.62592" lon="6.109">
        <ele>1170.586</ele>
        <time>2014-06-13T10:54:56Z</time>
      </trkpt>
      <trkpt lat="46.62648" lon="6.10951">
        <ele>1169.194</ele>
        <time>2014-06-13T10:54:02Z</time>
      </trkpt>
      <trkpt lat="46.62674" lon="6.10957">
        <ele>1169.645</ele>
        <time>2014-06-13T10:53:43Z</time>
      </trkpt>
      <trkpt lat="46.62738" lon="6.10921">
        <ele>1173.97</ele>
        <time>2014-06-13T10:53:04Z</time>
      </trkpt>
      <trkpt lat="46.62803" lon="6.10822">
        <ele>1184.023</ele>
        <time>2014-06-13T10:51:33Z</time>
      </trkpt>
      <trkpt lat="46.62835" lon="6.10885">
        <ele>1187.958</ele>
        <time>2014-06-13T10:50:51Z</time>
      </trkpt>
      <trkpt lat="46.62881" lon="6.10856">
        <ele>1194.164</ele>
        <time>2014-06-13T10:50:03Z</time>
      </trkpt>
      <trkpt lat="46.62892" lon="6.1092">
        <ele>1197.907</ele>
        <time>2014-06-13T10:49:33Z</time>
      </trkpt>
      <trkpt lat="46.62927" lon="6.10966">
        <ele>1199.421</ele>
        <time>2014-06-13T10:48:51Z</time>
      </trkpt>
      <trkpt lat="46.63028" lon="6.11037">
        <ele>1201.356</ele>
        <time>2014-06-13T10:47:09Z</time>
      </trkpt>
      <trkpt lat="46.63054" lon="6.11081">
        <ele>1202.874</ele>
        <time>2014-06-13T10:46:37Z</time>
      </trkpt>
      <trkpt lat="46.63112" lon="6.11295">
        <ele>1215.744</ele>
        <time>2014-06-13T10:44:33Z</time>
      </trkpt>
      <trkpt lat="46.63151" lon="6.11329">
        <ele>1215.732</ele>
        <time>2014-06-13T10:43:58Z</time>
      </trkpt>
      <trkpt lat="46.63228" lon="6.11287">
        <ele>1210.043</ele>
        <time>2014-06-13T10:42:47Z</time>
      </trkpt>
      <trkpt lat="46.6334" lon="6.11159">
        <ele>1206.648</ele>
        <time>2014-06-13T10:41:08Z</time>
      </trkpt>
      <trkpt lat="46.63423" lon="6.10937">
        <ele>1205.681</ele>
        <time>2014-06-13T10:38:31Z</time>
      </trkpt>
      <trkpt lat="46.63465" lon="6.10926">
        <ele>1205.696</ele>
        <time>2014-06-13T10:37:51Z</time>
      </trkpt>
      <trkpt lat="46.63554" lon="6.1095">
        <ele>1206.692</ele>
        <time>2014-06-13T10:36:44Z</time>
      </trkpt>
      <trkpt lat="46.63583" lon="6.10997">
        <ele>1207.607</ele>
        <time>2014-06-13T10:36:08Z</time>
      </trkpt>
      <trkpt lat="46.63559" lon="6.11155">
        <ele>1207.617</ele>
        <time>2014-06-13T10:34:52Z</time>
      </trkpt>
      <trkpt lat="46.63597" lon="6.11214">
        <ele>1207.652</ele>
        <time>2014-06-13T10:34:15Z</time>
      </trkpt>
      <trkpt lat="46.63675" lon="6.11225">
        <ele>1206.658</ele>
        <time>2014-06-13T10:33:17Z</time>
      </trkpt>
      <trkpt lat="46.63712" lon="6.11286">
        <ele>1208.026</ele>
        <time>2014-06-13T10:32:37Z</time>
      </trkpt>
      <trkpt lat="46.63752" lon="6.11395">
        <ele>1208.074</ele>
        <time>2014-06-13T10:31:33Z</time>
      </trkpt>
      <trkpt lat="46.63785" lon="6.11596">
        <ele>1208.055</ele>
        <time>2014-06-13T10:29:46Z</time>
      </trkpt>
      <trkpt lat="46.63831" lon="6.11733">
        <ele>1209.59</ele>
        <time>2014-06-13T10:28:24Z</time>
      </trkpt>
      <trkpt lat="46.63892" lon="6.11829">
        <ele>1210.433</ele>
        <time>2014-06-13T10:27:12Z</time>
      </trkpt>
      <trkpt lat="46.63957" lon="6.11878">
        <ele>1211.458</ele>
        <time>2014-06-13T10:26:17Z</time>
      </trkpt>
      <trkpt lat="46.63994" lon="6.11875">
        <ele>1211.424</ele>
        <time>2014-06-13T10:25:43Z</time>
      </trkpt>
      <trkpt lat="46.64" lon="6.11834">
        <ele>1211.407</ele>
        <time>2014-06-13T10:25:14Z</time>
      </trkpt>
      <trkpt lat="46.64107" lon="6.11868">
        <ele>1212.821</ele>
        <time>2014-06-13T10:23:45Z</time>
      </trkpt>
      <trkpt lat="46.6425" lon="6.11785">
        <ele>1205.256</ele>
        <time>2014-06-13T10:21:30Z</time>
      </trkpt>
      <trkpt lat="46.64394" lon="6.11637">
        <ele>1192.774</ele>
        <time>2014-06-13T10:18:48Z</time>
      </trkpt>
      <trkpt lat="46.64432" lon="6.11614">
        <ele>1191.27</ele>
        <time>2014-06-13T10:18:01Z</time>
      </trkpt>
      <trkpt lat="46.64564" lon="6.1142">
        <ele>1193.138</ele>
        <time>2014-06-13T10:15:36Z</time>
      </trkpt>
      <trkpt lat="46.64813" lon="6.11321">
        <ele>1195.149</ele>
        <time>2014-06-13T10:12:13Z</time>
      </trkpt>
      <trkpt lat="46.64861" lon="6.11346">
        <ele>1196.054</ele>
        <time>2014-06-13T10:11:28Z</time>
      </trkpt>
      <trkpt lat="46.64889" lon="6.11396">
        <ele>1193.157</ele>
        <time>2014-06-13T10:10:53Z</time>
      </trkpt>
      <trkpt lat="46.64942" lon="6.11365">
        <ele>1195.192</ele>
        <time>2014-06-13T10:10:14Z</time>
      </trkpt>
      <trkpt lat="46.6496" lon="6.11335">
        <ele>1194.628</ele>
        <time>2014-06-13T10:09:50Z</time>
      </trkpt>
      <trkpt lat="46.65157" lon="6.11251">
        <ele>1177.807</ele>
        <time>2014-06-13T10:06:28Z</time>
      </trkpt>
      <trkpt lat="46.65247" lon="6.11187">
        <ele>1174.903</ele>
        <time>2014-06-13T10:04:53Z</time>
      </trkpt>
      <trkpt lat="46.65282" lon="6.11206">
        <ele>1172.521</ele>
        <time>2014-06-13T10:04:15Z</time>
      </trkpt>
      <trkpt lat="46.65324" lon="6.11263">
        <ele>1171.011</ele>
        <time>2014-06-13T10:03:27Z</time>
      </trkpt>
      <trkpt lat="46.65343" lon="6.11277">
        <ele>1169.636</ele>
        <time>2014-06-13T10:03:10Z</time>
      </trkpt>
      <trkpt lat="46.65363" lon="6.11271">
        <ele>1167.724</ele>
        <time>2014-06-13T10:02:53Z</time>
      </trkpt>
      <trkpt lat="46.65388" lon="6.11236">
        <ele>1166.715</ele>
        <time>2014-06-13T10:02:18Z</time>
      </trkpt>
      <trkpt lat="46.65423" lon="6.11217">
        <ele>1163.37</ele>
        <time>2014-06-13T10:01:29Z</time>
      </trkpt>
      <trkpt lat="46.65505" lon="6.11109">
        <ele>1150.893</ele>
        <time>2014-06-13T09:59:11Z</time>
      </trkpt>
      <trkpt lat="46.65556" lon="6.11137">
        <ele>1144.158</ele>
        <time>2014-06-13T09:58:04Z</time>
      </trkpt>
      <trkpt lat="46.65592" lon="6.11179">
        <ele>1140.354</ele>
        <time>2014-06-13T09:57:11Z</time>
      </trkpt>
      <trkpt lat="46.65636" lon="6.11177">
        <ele>1136.407</ele>
        <time>2014-06-13T09:56:27Z</time>
      </trkpt>
      <trkpt lat="46.65685" lon="6.11119">
        <ele>1133.114</ele>
        <time>2014-06-13T09:55:31Z</time>
      </trkpt>
      <trkpt lat="46.65703" lon="6.11073">
        <ele>1131.613</ele>
        <time>2014-06-13T09:55:00Z</time>
      </trkpt>
      <trkpt lat="46.65701" lon="6.10953">
        <ele>1124.972</ele>
        <time>2014-06-13T09:53:17Z</time>
      </trkpt>
      <trkpt lat="46.65684" lon="6.10893">
        <ele>1122.065</ele>
        <time>2014-06-13T09:52:27Z</time>
      </trkpt>
      <trkpt lat="46.65578" lon="6.10716">
        <ele>1108.583</ele>
        <time>2014-06-13T09:49:00Z</time>
      </trkpt>
      <trkpt lat="46.65563" lon="6.10656">
        <ele>1104.764</ele>
        <time>2014-06-13T09:48:03Z</time>
      </trkpt>
      <trkpt lat="46.65585" lon="6.10643">
        <ele>1100.979</ele>
        <time>2014-06-13T09:47:27Z</time>
      </trkpt>
      <trkpt lat="46.65645" lon="6.10684">
        <ele>1094.122</ele>
        <time>2014-06-13T09:45:58Z</time>
      </trkpt>
      <trkpt lat="46.65688" lon="6.10696">
        <ele>1090.387</ele>
        <time>2014-06-13T09:45:09Z</time>
      </trkpt>
      <trkpt lat="46.65823" lon="6.10578">
        <ele>1073.593</ele>
        <time>2014-06-13T09:42:05Z</time>
      </trkpt>
      <trkpt lat="46.65931" lon="6.10823">
        <ele>1069.607</ele>
        <time>2014-06-13T09:39:13Z</time>
      </trkpt>
      <trkpt lat="46.66008" lon="6.1095">
        <ele>1071.514</ele>
        <time>2014-06-13T09:37:20Z</time>
      </trkpt>
      <trkpt lat="46.66066" lon="6.11003">
        <ele>1070.168</ele>
        <time>2014-06-13T09:36:18Z</time>
      </trkpt>
      <trkpt lat="46.66089" lon="6.11096">
        <ele>1065.865</ele>
        <time>2014-06-13T09:35:16Z</time>
      </trkpt>
      <trkpt lat="46.66152" lon="6.11217">
        <ele>1057.138</ele>
        <time>2014-06-13T09:32:52Z</time>
      </trkpt>
      <trkpt lat="46.66174" lon="6.11282">
        <ele>1052.816</ele>
        <time>2014-06-13T09:31:58Z</time>
      </trkpt>
      <trkpt lat="46.66172" lon="6.1134">
        <ele>1048.547</ele>
        <time>2014-06-13T09:31:07Z</time>
      </trkpt>
      <trkpt lat="46.66222" lon="6.11508">
        <ele>1049.452</ele>
        <time>2014-06-13T09:28:55Z</time>
      </trkpt>
      <trkpt lat="46.66201" lon="6.11616">
        <ele>1058.655</ele>
        <time>2014-06-13T09:27:35Z</time>
      </trkpt>
      <trkpt lat="46.66214" lon="6.11718">
        <ele>1065.85</ele>
        <time>2014-06-13T09:26:23Z</time>
      </trkpt>
      <trkpt lat="46.66261" lon="6.11755">
        <ele>1065.316</ele>
        <time>2014-06-13T09:25:35Z</time>
      </trkpt>
      <trkpt lat="46.6632" lon="6.1176">
        <ele>1058.607</ele>
        <time>2014-06-13T09:24:38Z</time>
      </trkpt>
      <trkpt lat="46.664" lon="6.11699">
        <ele>1049.42</ele>
        <time>2014-06-13T09:23:05Z</time>
      </trkpt>
      <trkpt lat="46.66471" lon="6.11797">
        <ele>1045.673</ele>
        <time>2014-06-13T09:21:47Z</time>
      </trkpt>
      <trkpt lat="46.66517" lon="6.11881">
        <ele>1046.592</ele>
        <time>2014-06-13T09:20:56Z</time>
      </trkpt>
      <trkpt lat="46.66531" lon="6.12113">
        <ele>1045.62</ele>
        <time>2014-06-13T09:18:33Z</time>
      </trkpt>
      <trkpt lat="46.6671" lon="6.12571">
        <ele>1057.638</ele>
        <time>2014-06-13T09:13:56Z</time>
      </trkpt>
      <trkpt lat="46.66965" lon="6.12987">
        <ele>1030.749</ele>
        <time>2014-06-13T09:08:04Z</time>
      </trkpt>
      <trkpt lat="46.67048" lon="6.13047">
        <ele>1022.524</ele>
        <time>2014-06-13T09:06:44Z</time>
      </trkpt>
      <trkpt lat="46.67156" lon="6.13168">
        <ele>1020.127</ele>
        <time>2014-06-13T09:04:58Z</time>
      </trkpt>
      <trkpt lat="46.67251" lon="6.13228">
        <ele>1017.752</ele>
        <time>2014-06-13T09:03:38Z</time>
      </trkpt>
      <trkpt lat="46.6737" lon="6.13511">
        <ele>1011.438</ele>
        <time>2014-06-13T09:00:41Z</time>
      </trkpt>
      <trkpt lat="46.6743" lon="6.13751">
        <ele>1009.007</ele>
        <time>2014-06-13T08:58:09Z</time>
      </trkpt>
      <trkpt lat="46.67507" lon="6.13757">
        <ele>1005.703</ele>
        <time>2014-06-13T08:57:02Z</time>
      </trkpt>
      <trkpt lat="46.67604" lon="6.13828">
        <ele>1003.321</ele>
        <time>2014-06-13T08:55:38Z</time>
      </trkpt>
      <trkpt lat="46.67641" lon="6.13841">
        <ele>1002.311</ele>
        <time>2014-06-13T08:55:10Z</time>
      </trkpt>
      <trkpt lat="46.67672" lon="6.13834">
        <ele>1001.465</ele>
        <time>2014-06-13T08:54:49Z</time>
      </trkpt>
      <trkpt lat="46.67735" lon="6.13756">
        <ele>999.453</ele>
        <time>2014-06-13T08:53:42Z</time>
      </trkpt>
      <trkpt lat="46.68086" lon="6.13442">
        <ele>995.663</ele>
        <time>2014-06-13T08:46:25Z</time>
      </trkpt>
      <trkpt lat="46.68086" lon="6.13442">
        <ele>995.663</ele>
        <time>2014-06-13T08:46:25Z</time>
      </trkpt>
      <trkpt lat="46.68086" lon="6.13442">
        <ele>995.663</ele>
        <time>2014-06-13T08:46:25Z</time>
      </trkpt>
      <trkpt lat="46.68044" lon="6.13417">
        <ele>996.567</ele>
        <time>2014-06-13T08:47:03Z</time>
      </trkpt>
      <trkpt lat="46.67963" lon="6.13328">
        <ele>994.162</ele>
        <time>2014-06-13T08:48:23Z</time>
      </trkpt>
      <trkpt lat="46.67937" lon="6.13337">
        <ele>993.719</ele>
        <time>2014-06-13T08:48:53Z</time>
      </trkpt>
      <trkpt lat="46.67881" lon="6.13417">
        <ele>994.654</ele>
        <time>2014-06-13T08:49:58Z</time>
      </trkpt>
      <trkpt lat="46.67735" lon="6.13756">
        <ele>999.453</ele>
        <time>2014-06-13T08:53:42Z</time>
      </trkpt>
      <trkpt lat="46.67672" lon="6.13834">
        <ele>1001.465</ele>
        <time>2014-06-13T08:54:49Z</time>
      </trkpt>
      <trkpt lat="46.67641" lon="6.13841">
        <ele>1002.311</ele>
        <time>2014-06-13T08:55:10Z</time>
      </trkpt>
      <trkpt lat="46.67604" lon="6.13828">
        <ele>1003.321</ele>
        <time>2014-06-13T08:55:38Z</time>
      </trkpt>
      <trkpt lat="46.67507" lon="6.13757">
        <ele>1005.703</ele>
        <time>2014-06-13T08:57:02Z</time>
      </trkpt>
      <trkpt lat="46.6743" lon="6.13751">
        <ele>1009.007</ele>
        <time>2014-06-13T08:58:09Z</time>
      </trkpt>
      <trkpt lat="46.6737" lon="6.13511">
        <ele>1011.438</ele>
        <time>2014-06-13T09:00:41Z</time>
      </trkpt>
      <trkpt lat="46.67251" lon="6.13228">
        <ele>1017.752</ele>
        <time>2014-06-13T09:03:38Z</time>
      </trkpt>
      <trkpt lat="46.67156" lon="6.13168">
        <ele>1020.127</ele>
        <time>2014-06-13T09:04:58Z</time>
      </trkpt>
      <trkpt lat="46.67048" lon="6.13047">
        <ele>1022.524</ele>
        <time>2014-06-13T09:06:44Z</time>
      </trkpt>
      <trkpt lat="46.66965" lon="6.12987">
        <ele>1030.749</ele>
        <time>2014-06-13T09:08:04Z</time>
      </trkpt>
      <trkpt lat="46.6671" lon="6.12571">
        <ele>1057.638</ele>
        <time>2014-06-13T09:13:56Z</time>
      </trkpt>
      <trkpt lat="46.66531" lon="6.12113">
        <ele>1045.62</ele>
        <time>2014-06-13T09:18:33Z</time>
      </trkpt>
      <trkpt lat="46.66517" lon="6.11881">
        <ele>1046.592</ele>
        <time>2014-06-13T09:20:56Z</time>
      </trkpt>
      <trkpt lat="46.66471" lon="6.11797">
        <ele>1045.673</ele>
        <time>2014-06-13T09:21:47Z</time>
      </trkpt>
      <trkpt lat="46.664" lon="6.11699">
        <ele>1049.42</ele>
        <time>2014-06-13T09:23:05Z</time>
      </trkpt>
      <trkpt lat="46.6632" lon="6.1176">
        <ele>1058.607</ele>
        <time>2014-06-13T09:24:38Z</time>
      </trkpt>
      <trkpt lat="46.66261" lon="6.11755">
        <ele>1065.316</ele>
        <time>2014-06-13T09:25:35Z</time>
      </trkpt>
      <trkpt lat="46.66214" lon="6.11718">
        <ele>1065.85</ele>
        <time>2014-06-13T09:26:23Z</time>
      </trkpt>
      <trkpt lat="46.66201" lon="6.11616">
        <ele>1058.655</ele>
        <time>2014-06-13T09:27:35Z</time>
      </trkpt>
      <trkpt lat="46.66222" lon="6.11508">
        <ele>1049.452</ele>
        <time>2014-06-13T09:28:55Z</time>
      </trkpt>
      <trkpt lat="46.66172" lon="6.1134">
        <ele>1048.547</ele>
        <time>2014-06-13T09:31:07Z</time>
      </trkpt>
      <trkpt lat="46.66174" lon="6.11282">
        <ele>1052.816</ele>
        <time>2014-06-13T09:31:58Z</time>
      </trkpt>
      <trkpt lat="46.66152" lon="6.11217">
        <ele>1057.138</ele>
        <time>2014-06-13T09:32:52Z</time>
      </trkpt>
      <trkpt lat="46.66089" lon="6.11096">
        <ele>1065.865</ele>
        <time>2014-06-13T09:35:16Z</time>
      </trkpt>
      <trkpt lat="46.66066" lon="6.11003">
        <ele>1070.168</ele>
        <time>2014-06-13T09:36:18Z</time>
      </trkpt>
      <trkpt lat="46.66008" lon="6.1095">
        <ele>1071.514</ele>
        <time>2014-06-13T09:37:20Z</time>
      </trkpt>
      <trkpt lat="46.65931" lon="6.10823">
        <ele>1069.607</ele>
        <time>2014-06-13T09:39:13Z</time>
      </trkpt>
      <trkpt lat="46.65823" lon="6.10578">
        <ele>1073.593</ele>
        <time>2014-06-13T09:42:05Z</time>
      </trkpt>
      <trkpt lat="46.65688" lon="6.10696">
        <ele>1090.387</ele>
        <time>2014-06-13T09:45:09Z</time>
      </trkpt>
      <trkpt lat="46.65645" lon="6.10684">
        <ele>1094.122</ele>
        <time>2014-06-13T09:45:58Z</time>
      </trkpt>
      <trkpt lat="46.65585" lon="6.10643">
        <ele>1100.979</ele>
        <time>2014-06-13T09:47:27Z</time>
      </trkpt>
      <trkpt lat="46.65563" lon="6.10656">
        <ele>1104.764</ele>
        <time>2014-06-13T09:48:03Z</time>
      </trkpt>
      <trkpt lat="46.65578" lon="6.10716">
        <ele>1108.583</ele>
        <time>2014-06-13T09:49:00Z</time>
      </trkpt>
      <trkpt lat="46.65684" lon="6.10893">
        <ele>1122.065</ele>
        <time>2014-06-13T09:52:27Z</time>
      </trkpt>
      <trkpt lat="46.65701" lon="6.10953">
        <ele>1124.972</ele>
        <time>2014-06-13T09:53:17Z</time>
      </trkpt>
      <trkpt lat="46.65703" lon="6.11073">
        <ele>1131.613</ele>
        <time>2014-06-13T09:55:00Z</time>
      </trkpt>
      <trkpt lat="46.65685" lon="6.11119">
        <ele>1133.114</ele>
        <time>2014-06-13T09:55:31Z</time>
      </trkpt>
      <trkpt lat="46.65636" lon="6.11177">
        <ele>1136.407</ele>
        <time>2014-06-13T09:56:27Z</time>
      </trkpt>
      <trkpt lat="46.65592" lon="6.11179">
        <ele>1140.354</ele>
        <time>2014-06-13T09:57:11Z</time>
      </trkpt>
      <trkpt lat="46.65556" lon="6.11137">
        <ele>1144.158</ele>
        <time>2014-06-13T09:58:04Z</time>
      </trkpt>
      <trkpt lat="46.65505" lon="6.11109">
        <ele>1150.893</ele>
        <time>2014-06-13T09:59:11Z</time>
      </trkpt>
      <trkpt lat="46.65423" lon="6.11217">
        <ele>1163.37</ele>
        <time>2014-06-13T10:01:29Z</time>
      </trkpt>
      <trkpt lat="46.65388" lon="6.11236">
        <ele>1166.715</ele>
        <time>2014-06-13T10:02:18Z</time>
      </trkpt>
      <trkpt lat="46.65363" lon="6.11271">
        <ele>1167.724</ele>
        <time>2014-06-13T10:02:53Z</time>
      </trkpt>
      <trkpt lat="46.65343" lon="6.11277">
        <ele>1169.636</ele>
        <time>2014-06-13T10:03:10Z</time>
      </trkpt>
      <trkpt lat="46.65324" lon="6.11263">
        <ele>1171.011</ele>
        <time>2014-06-13T10:03:27Z</time>
      </trkpt>
      <trkpt lat="46.65282" lon="6.11206">
        <ele>1172.521</ele>
        <time>2014-06-13T10:04:15Z</time>
      </trkpt>
      <trkpt lat="46.65247" lon="6.11187">
        <ele>1174.903</ele>
        <time>2014-06-13T10:04:53Z</time>
      </trkpt>
      <trkpt lat="46.65157" lon="6.11251">
        <ele>1177.807</ele>
        <time>2014-06-13T10:06:28Z</time>
      </trkpt>
      <trkpt lat="46.6496" lon="6.11335">
        <ele>1194.628</ele>
        <time>2014-06-13T10:09:50Z</time>
      </trkpt>
      <trkpt lat="46.64942" lon="6.11365">
        <ele>1195.192</ele>
        <time>2014-06-13T10:10:14Z</time>
      </trkpt>
      <trkpt lat="46.64889" lon="6.11396">
        <ele>1193.157</ele>
        <time>2014-06-13T10:10:53Z</time>
      </trkpt>
      <trkpt lat="46.64861" lon="6.11346">
        <ele>1196.054</ele>
        <time>2014-06-13T10:11:28Z</time>
      </trkpt>
      <trkpt lat="46.64813" lon="6.11321">
        <ele>1195.149</ele>
        <time>2014-06-13T10:12:13Z</time>
      </trkpt>
      <trkpt lat="46.64564" lon="6.1142">
        <ele>1193.138</ele>
        <time>2014-06-13T10:15:36Z</time>
      </trkpt>
      <trkpt lat="46.64432" lon="6.11614">
        <ele>1191.27</ele>
        <time>2014-06-13T10:18:01Z</time>
      </trkpt>
      <trkpt lat="46.64394" lon="6.11637">
        <ele>1192.774</ele>
        <time>2014-06-13T10:18:48Z</time>
      </trkpt>
      <trkpt lat="46.6425" lon="6.11785">
        <ele>1205.256</ele>
        <time>2014-06-13T10:21:30Z</time>
      </trkpt>
      <trkpt lat="46.64107" lon="6.11868">
        <ele>1212.821</ele>
        <time>2014-06-13T10:23:45Z</time>
      </trkpt>
      <trkpt lat="46.64" lon="6.11834">
        <ele>1211.407</ele>
        <time>2014-06-13T10:25:14Z</time>
      </trkpt>
      <trkpt lat="46.63994" lon="6.11875">
        <ele>1211.424</ele>
        <time>2014-06-13T10:25:43Z</time>
      </trkpt>
      <trkpt lat="46.63957" lon="6.11878">
        <ele>1211.458</ele>
        <time>2014-06-13T10:26:17Z</time>
      </trkpt>
      <trkpt lat="46.63892" lon="6.11829">
        <ele>1210.433</ele>
        <time>2014-06-13T10:27:12Z</time>
      </trkpt>
      <trkpt lat="46.63831" lon="6.11733">
        <ele>1209.59</ele>
        <time>2014-06-13T10:28:24Z</time>
      </trkpt>
      <trkpt lat="46.63785" lon="6.11596">
        <ele>1208.055</ele>
        <time>2014-06-13T10:29:46Z</time>
      </trkpt>
      <trkpt lat="46.63752" lon="6.11395">
        <ele>1208.074</ele>
        <time>2014-06-13T10:31:33Z</time>
      </trkpt>
      <trkpt lat="46.63712" lon="6.11286">
        <ele>1208.026</ele>
        <time>2014-06-13T10:32:37Z</time>
      </trkpt>
      <trkpt lat="46.63675" lon="6.11225">
        <ele>1206.658</ele>
        <time>2014-06-13T10:33:17Z</time>
      </trkpt>
      <trkpt lat="46.63597" lon="6.11214">
        <ele>1207.652</ele>
        <time>2014-06-13T10:34:15Z</time>
      </trkpt>
      <trkpt lat="46.63559" lon="6.11155">
        <ele>1207.617</ele>
        <time>2014-06-13T10:34:52Z</time>
      </trkpt>
      <trkpt lat="46.63583" lon="6.10997">
        <ele>1207.607</ele>
        <time>2014-06-13T10:36:08Z</time>
      </trkpt>
      <trkpt lat="46.63554" lon="6.1095">
        <ele>1206.692</ele>
        <time>2014-06-13T10:36:44Z</time>
      </trkpt>
      <trkpt lat="46.63465" lon="6.10926">
        <ele>1205.696</ele>
        <time>2014-06-13T10:37:51Z</time>
      </trkpt>
      <trkpt lat="46.63423" lon="6.10937">
        <ele>1205.681</ele>
        <time>2014-06-13T10:38:31Z</time>
      </trkpt>
      <trkpt lat="46.6334" lon="6.11159">
        <ele>1206.648</ele>
        <time>2014-06-13T10:41:08Z</time>
      </trkpt>
      <trkpt lat="46.63228" lon="6.11287">
        <ele>1210.043</ele>
        <time>2014-06-13T10:42:47Z</time>
      </trkpt>
      <trkpt lat="46.63151" lon="6.11329">
        <ele>1215.732</ele>
        <time>2014-06-13T10:43:58Z</time>
      </trkpt>
      <trkpt lat="46.63112" lon="6.11295">
        <ele>1215.744</ele>
        <time>2014-06-13T10:44:33Z</time>
      </trkpt>
      <trkpt lat="46.63054" lon="6.11081">
        <ele>1202.874</ele>
        <time>2014-06-13T10:46:37Z</time>
      </trkpt>
      <trkpt lat="46.63028" lon="6.11037">
        <ele>1201.356</ele>
        <time>2014-06-13T10:47:09Z</time>
      </trkpt>
      <trkpt lat="46.62927" lon="6.10966">
        <ele>1199.421</ele>
        <time>2014-06-13T10:48:51Z</time>
      </trkpt>
      <trkpt lat="46.62892" lon="6.1092">
        <ele>1197.907</ele>
        <time>2014-06-13T10:49:33Z</time>
      </trkpt>
      <trkpt lat="46.62881" lon="6.10856">
        <ele>1194.164</ele>
        <time>2014-06-13T10:50:03Z</time>
      </trkpt>
      <trkpt lat="46.62835" lon="6.10885">
        <ele>1187.958</ele>
        <time>2014-06-13T10:50:51Z</time>
      </trkpt>
      <trkpt lat="46.62803" lon="6.10822">
        <ele>1184.023</ele>
        <time>2014-06-13T10:51:33Z</time>
      </trkpt>
      <trkpt lat="46.62738" lon="6.10921">
        <ele>1173.97</ele>
        <time>2014-06-13T10:53:04Z</time>
      </trkpt>
      <trkpt lat="46.62674" lon="6.10957">
        <ele>1169.645</ele>
        <time>2014-06-13T10:53:43Z</time>
      </trkpt>
      <trkpt lat="46.62648" lon="6.10951">
        <ele>1169.194</ele>
        <time>2014-06-13T10:54:02Z</time>
      </trkpt>
      <trkpt lat="46.62592" lon="6.109">
        <ele>1170.586</ele>
        <time>2014-06-13T10:54:56Z</time>
      </trkpt>
      <trkpt lat="46.62481" lon="6.10927">
        <ele>1164.378</ele>
        <time>2014-06-13T10:56:29Z</time>
      </trkpt>
      <trkpt lat="46.62429" lon="6.10916">
        <ele>1158.133</ele>
        <time>2014-06-13T10:58:02Z</time>
      </trkpt>
      <trkpt lat="46.62356" lon="6.10776">
        <ele>1150.826</ele>
        <time>2014-06-13T10:59:54Z</time>
      </trkpt>
      <trkpt lat="46.62258" lon="6.10477">
        <ele>1138.807</ele>
        <time>2014-06-13T11:02:56Z</time>
      </trkpt>
      <trkpt lat="46.6222" lon="6.10441">
        <ele>1137.964</ele>
        <time>2014-06-13T11:03:42Z</time>
      </trkpt>
      <trkpt lat="46.62192" lon="6.1045">
        <ele>1138.828</ele>
        <time>2014-06-13T11:04:09Z</time>
      </trkpt>
      <trkpt lat="46.62031" lon="6.1058">
        <ele>1122.583</ele>
        <time>2014-06-13T11:07:06Z</time>
      </trkpt>
      <trkpt lat="46.61941" lon="6.10547">
        <ele>1113.88</ele>
        <time>2014-06-13T11:08:29Z</time>
      </trkpt>
      <trkpt lat="46.61882" lon="6.10495">
        <ele>1106.185</ele>
        <time>2014-06-13T11:09:33Z</time>
      </trkpt>
      <trkpt lat="46.61806" lon="6.10518">
        <ele>1106.654</ele>
        <time>2014-06-13T11:10:58Z</time>
      </trkpt>
      <trkpt lat="46.61744" lon="6.10502">
        <ele>1102.386</ele>
        <time>2014-06-13T11:11:51Z</time>
      </trkpt>
      <trkpt lat="46.61707" lon="6.10523">
        <ele>1099.483</ele>
        <time>2014-06-13T11:12:21Z</time>
      </trkpt>
      <trkpt lat="46.6168" lon="6.10521">
        <ele>1098.425</ele>
        <time>2014-06-13T11:12:47Z</time>
      </trkpt>
      <trkpt lat="46.61639" lon="6.10559">
        <ele>1098.017</ele>
        <time>2014-06-13T11:13:28Z</time>
      </trkpt>
      <trkpt lat="46.61568" lon="6.10568">
        <ele>1095.607</ele>
        <time>2014-06-13T11:14:23Z</time>
      </trkpt>
      <trkpt lat="46.61446" lon="6.10645">
        <ele>1092.795</ele>
        <time>2014-06-13T11:16:14Z</time>
      </trkpt>
      <trkpt lat="46.61415" lon="6.1064">
        <ele>1093.619</ele>
        <time>2014-06-13T11:16:44Z</time>
      </trkpt>
      <trkpt lat="46.61372" lon="6.10582">
        <ele>1090.344</ele>
        <time>2014-06-13T11:17:36Z</time>
      </trkpt>
      <trkpt lat="46.61232" lon="6.10539">
        <ele>1093.251</ele>
        <time>2014-06-13T11:19:44Z</time>
      </trkpt>
      <trkpt lat="46.61197" lon="6.10414">
        <ele>1092.746</ele>
        <time>2014-06-13T11:20:55Z</time>
      </trkpt>
      <trkpt lat="46.61159" lon="6.10386">
        <ele>1091.255</ele>
        <time>2014-06-13T11:21:35Z</time>
      </trkpt>
      <trkpt lat="46.61099" lon="6.10403">
        <ele>1090.367</ele>
        <time>2014-06-13T11:22:36Z</time>
      </trkpt>
      <trkpt lat="46.60965" lon="6.10476">
        <ele>1086.929</ele>
        <time>2014-06-13T11:24:31Z</time>
      </trkpt>
      <trkpt lat="46.608" lon="6.1061">
        <ele>1085</ele>
        <time>2014-06-13T11:27:18Z</time>
      </trkpt>
      <trkpt lat="46.60692" lon="6.10676">
        <ele>1084.02</ele>
        <time>2014-06-13T11:29:02Z</time>
      </trkpt>
      <trkpt lat="46.60271" lon="6.10672">
        <ele>1079.207</ele>
        <time>2014-06-13T11:34:51Z</time>
      </trkpt>
      <trkpt lat="46.60127" lon="6.10712">
        <ele>1077.879</ele>
        <time>2014-06-13T11:36:58Z</time>
      </trkpt>
      <trkpt lat="46.60075" lon="6.10711">
        <ele>1077.323</ele>
        <time>2014-06-13T11:37:54Z</time>
      </trkpt>
      <trkpt lat="46.6006" lon="6.10864">
        <ele>1078.388</ele>
        <time>2014-06-13T11:40:08Z</time>
      </trkpt>
      <trkpt lat="46.59942" lon="6.1133">
        <ele>1094.145</ele>
        <time>2014-06-13T11:45:37Z</time>
      </trkpt>
      <trkpt lat="46.59882" lon="6.11402">
        <ele>1089.88</ele>
        <time>2014-06-13T11:46:59Z</time>
      </trkpt>
      <trkpt lat="46.59802" lon="6.11411">
        <ele>1093.279</ele>
        <time>2014-06-13T11:48:54Z</time>
      </trkpt>
      <trkpt lat="46.59826" lon="6.11404">
        <ele>1093.621</ele>
        <time>2014-06-13T11:49:49Z</time>
      </trkpt>
      <trkpt lat="46.59822" lon="6.11391">
        <ele>1094.166</ele>
        <time>2014-06-13T11:50:09Z</time>
      </trkpt>
      <trkpt lat="46.59844" lon="6.11363">
        <ele>1093.629</ele>
        <time>2014-06-13T11:50:43Z</time>
      </trkpt>
      <trkpt lat="46.59794" lon="6.11417">
        <ele>1093.621</ele>
        <time>2014-06-13T11:51:10Z</time>
      </trkpt>
      <trkpt lat="46.59812" lon="6.11379">
        <ele>1097.007</ele>
        <time>2014-06-13T11:53:43Z</time>
      </trkpt>
      <trkpt lat="46.60026" lon="6.10511">
        <ele>1076.688</ele>
      </trkpt>
      <trkpt lat="46.60025" lon="6.10529">
        <ele>1076.17</ele>
      </trkpt>
      <trkpt lat="46.60027" lon="6.10546">
        <ele>1076.02</ele>
      </trkpt>
      <trkpt lat="46.60037" lon="6.10574">
        <ele>1075.216</ele>
      </trkpt>
      <trkpt lat="46.60044" lon="6.10599">
        <ele>1074.199</ele>
      </trkpt>
      <trkpt lat="46.60051" lon="6.10614">
        <ele>1073.611</ele>
      </trkpt>
      <trkpt lat="46.60056" lon="6.10629">
        <ele>1072.684</ele>
      </trkpt>
      <trkpt lat="46.60061" lon="6.10648">
        <ele>1072</ele>
      </trkpt>
      <trkpt lat="46.60067" lon="6.10668">
        <ele>1071.962</ele>
      </trkpt>
      <trkpt lat="46.60072" lon="6.10688">
        <ele>1071.243</ele>
      </trkpt>
      <trkpt lat="46.60076" lon="6.10704">
        <ele>1071</ele>
      </trkpt>
      <trkpt lat="46.60074" lon="6.10735">
        <ele>1071</ele>
      </trkpt>
      <trkpt lat="46.60071" lon="6.10769">
        <ele>1071</ele>
      </trkpt>
      <trkpt lat="46.60071" lon="6.10802">
        <ele>1071.872</ele>
      </trkpt>
      <trkpt lat="46.60069" lon="6.10828">
        <ele>1072</ele>
      </trkpt>
      <trkpt lat="46.60066" lon="6.10842">
        <ele>1072</ele>
      </trkpt>
      <trkpt lat="46.60057" lon="6.10866">
        <ele>1072</ele>
      </trkpt>
      <trkpt lat="46.60046" lon="6.10895">
        <ele>1072</ele>
      </trkpt>
      <trkpt lat="46.60036" lon="6.10925">
        <ele>1072</ele>
      </trkpt>
      <trkpt lat="46.60028" lon="6.10956">
        <ele>1072</ele>
      </trkpt>
      <trkpt lat="46.60013" lon="6.11015">
        <ele>1072.298</ele>
      </trkpt>
      <trkpt lat="46.60001" lon="6.1106">
        <ele>1074.128</ele>
      </trkpt>
      <trkpt lat="46.59996" lon="6.11081">
        <ele>1075.066</ele>
      </trkpt>
      <trkpt lat="46.59993" lon="6.11104">
        <ele>1075.99</ele>
      </trkpt>
      <trkpt lat="46.59985" lon="6.11129">
        <ele>1077.837</ele>
      </trkpt>
      <trkpt lat="46.59979" lon="6.11161">
        <ele>1079.768</ele>
      </trkpt>
      <trkpt lat="46.59973" lon="6.11189">
        <ele>1082.391</ele>
      </trkpt>
      <trkpt lat="46.59967" lon="6.11229">
        <ele>1085.252</ele>
      </trkpt>
      <trkpt lat="46.59969" lon="6.11244">
        <ele>1085.786</ele>
      </trkpt>
      <trkpt lat="46.59965" lon="6.11272">
        <ele>1086.985</ele>
      </trkpt>
      <trkpt lat="46.59957" lon="6.11305">
        <ele>1087.006</ele>
      </trkpt>
      <trkpt lat="46.59938" lon="6.11343">
        <ele>1088.856</ele>
      </trkpt>
      <trkpt lat="46.59925" lon="6.11362">
        <ele>1088.534</ele>
      </trkpt>
      <trkpt lat="46.59913" lon="6.11374">
        <ele>1087.46</ele>
      </trkpt>
      <trkpt lat="46.59905" lon="6.11387">
        <ele>1087.047</ele>
      </trkpt>
      <trkpt lat="46.59899" lon="6.11391">
        <ele>1087</ele>
      </trkpt>
      <trkpt lat="46.59885" lon="6.114">
        <ele>1087</ele>
      </trkpt>
      <trkpt lat="46.59872" lon="6.11401">
        <ele>1087</ele>
      </trkpt>
      <trkpt lat="46.59863" lon="6.114">
        <ele>1087</ele>
      </trkpt>
      <trkpt lat="46.5985" lon="6.11401">
        <ele>1087</ele>
      </trkpt>
      <trkpt lat="46.5984" lon="6.114">
        <ele>1087</ele>
      </trkpt>
      <trkpt lat="46.59827" lon="6.11406">
        <ele>1087</ele>
      </trkpt>
      <trkpt lat="46.59817" lon="6.11412">
        <ele>1087</ele>
      </trkpt>
      <trkpt lat="46.59808" lon="6.11417">
        <ele>1087</ele>
      </trkpt>
      <trkpt lat="46.59799" lon="6.11425">
        <ele>1087</ele>
      </trkpt>
      <trkpt lat="46.59796" lon="6.11431">
        <ele>1087</ele>
      </trkpt>
      <trkpt lat="46.59788" lon="6.11436">
        <ele>1087</ele>
      </trkpt>
      <trkpt lat="46.59784" lon="6.11416">
        <ele>1087</ele>
      </trkpt>
      <trkpt lat="46.59779" lon="6.11401">
        <ele>1087</ele>
      </trkpt>
      <trkpt lat="46.59766" lon="6.11385">
        <ele>1087</ele>
      </trkpt>
      <trkpt lat="46.59756" lon="6.11368">
        <ele>1087</ele>
      </trkpt>
      <trkpt lat="46.59748" lon="6.11351">
        <ele>1086.24</ele>
      </trkpt>
      <trkpt lat="46.59737" lon="6.11336">
        <ele>1085.132</ele>
      </trkpt>
      <trkpt lat="46.59731" lon="6.11326">
        <ele>1084.522</ele>
      </trkpt>
      <trkpt lat="46.59727" lon="6.11324">
        <ele>1084.348</ele>
      </trkpt>
      <trkpt lat="46.59721" lon="6.1133">
        <ele>1084.679</ele>
      </trkpt>
      <trkpt lat="46.59714" lon="6.11336">
        <ele>1084.779</ele>
      </trkpt>
      <trkpt lat="46.59705" lon="6.11335">
        <ele>1084.433</ele>
      </trkpt>
      <trkpt lat="46.59698" lon="6.1133">
        <ele>1083.873</ele>
      </trkpt>
      <trkpt lat="46.59694" lon="6.11325">
        <ele>1083.328</ele>
      </trkpt>
      <trkpt lat="46.59688" lon="6.11321">
        <ele>1082.76</ele>
      </trkpt>
      <trkpt lat="46.59683" lon="6.11324">
        <ele>1082.603</ele>
      </trkpt>
      <trkpt lat="46.59668" lon="6.11347">
        <ele>1082.619</ele>
      </trkpt>
      <trkpt lat="46.59652" lon="6.11389">
        <ele>1081.45</ele>
      </trkpt>
      <trkpt lat="46.59632" lon="6.11436">
        <ele>1078.249</ele>
      </trkpt>
      <trkpt lat="46.59615" lon="6.11473">
        <ele>1075.389</ele>
      </trkpt>
      <trkpt lat="46.59599" lon="6.11494">
        <ele>1075.795</ele>
      </trkpt>
      <trkpt lat="46.59589" lon="6.11502">
        <ele>1076.063</ele>
      </trkpt>
      <trkpt lat="46.59579" lon="6.11504">
        <ele>1076.297</ele>
      </trkpt>
      <trkpt lat="46.59566" lon="6.11503">
        <ele>1076.661</ele>
      </trkpt>
      <trkpt lat="46.59553" lon="6.11496">
        <ele>1077</ele>
      </trkpt>
      <trkpt lat="46.59542" lon="6.11489">
        <ele>1077</ele>
      </trkpt>
      <trkpt lat="46.59526" lon="6.11484">
        <ele>1077</ele>
      </trkpt>
      <trkpt lat="46.59515" lon="6.1148">
        <ele>1077</ele>
      </trkpt>
      <trkpt lat="46.595" lon="6.11479">
        <ele>1077</ele>
      </trkpt>
      <trkpt lat="46.59477" lon="6.11483">
        <ele>1077</ele>
      </trkpt>
      <trkpt lat="46.59452" lon="6.11487">
        <ele>1076.272</ele>
      </trkpt>
      <trkpt lat="46.59437" lon="6.1149">
        <ele>1076.16</ele>
      </trkpt>
      <trkpt lat="46.59421" lon="6.11493">
        <ele>1076.63</ele>
      </trkpt>
      <trkpt lat="46.59408" lon="6.11492">
        <ele>1076.812</ele>
      </trkpt>
      <trkpt lat="46.59396" lon="6.11493">
        <ele>1076.941</ele>
      </trkpt>
      <trkpt lat="46.59383" lon="6.11496">
        <ele>1077</ele>
      </trkpt>
      <trkpt lat="46.59373" lon="6.115">
        <ele>1077</ele>
      </trkpt>
      <trkpt lat="46.59358" lon="6.11517">
        <ele>1077.599</ele>
      </trkpt>
      <trkpt lat="46.59346" lon="6.11535">
        <ele>1078.275</ele>
      </trkpt>
      <trkpt lat="46.59336" lon="6.1155">
        <ele>1078.78</ele>
      </trkpt>
      <trkpt lat="46.59326" lon="6.11565">
        <ele>1079.095</ele>
      </trkpt>
      <trkpt lat="46.59316" lon="6.11579">
        <ele>1079.525</ele>
      </trkpt>
      <trkpt lat="46.593" lon="6.11598">
        <ele>1080.302</ele>
      </trkpt>
      <trkpt lat="46.59288" lon="6.11611">
        <ele>1080.379</ele>
      </trkpt>
      <trkpt lat="46.59277" lon="6.11627">
        <ele>1080.557</ele>
      </trkpt>
      <trkpt lat="46.59267" lon="6.11638">
        <ele>1080.565</ele>
      </trkpt>
      <trkpt lat="46.59257" lon="6.11663">
        <ele>1081.126</ele>
      </trkpt>
      <trkpt lat="46.59253" lon="6.11689">
        <ele>1082.627</ele>
      </trkpt>
      <trkpt lat="46.59248" lon="6.11713">
        <ele>1083.642</ele>
      </trkpt>
      <trkpt lat="46.59238" lon="6.11743">
        <ele>1084.764</ele>
      </trkpt>
      <trkpt lat="46.5923" lon="6.11769">
        <ele>1085.686</ele>
      </trkpt>
      <trkpt lat="46.5922" lon="6.11793">
        <ele>1087.086</ele>
      </trkpt>
      <trkpt lat="46.59206" lon="6.11823">
        <ele>1088.624</ele>
      </trkpt>
      <trkpt lat="46.59189" lon="6.11853">
        <ele>1091.847</ele>
      </trkpt>
      <trkpt lat="46.59173" lon="6.11883">
        <ele>1097.392</ele>
      </trkpt>
      <trkpt lat="46.5916" lon="6.11913">
        <ele>1102.57</ele>
      </trkpt>
      <trkpt lat="46.59142" lon="6.11944">
        <ele>1108.544</ele>
      </trkpt>
      <trkpt lat="46.59134" lon="6.11955">
        <ele>1111.021</ele>
      </trkpt>
      <trkpt lat="46.59123" lon="6.11959">
        <ele>1113.096</ele>
      </trkpt>
      <trkpt lat="46.59114" lon="6.11959">
        <ele>1114.494</ele>
      </trkpt>
      <trkpt lat="46.59105" lon="6.11951">
        <ele>1115.934</ele>
      </trkpt>
      <trkpt lat="46.59097" lon="6.11939">
        <ele>1116.69</ele>
      </trkpt>
      <trkpt lat="46.59088" lon="6.11929">
        <ele>1117.811</ele>
      </trkpt>
    </trkseg>
  </trk>
</gpx>